Time;durP1;ratioP1;P1;durP2;ratioP2;P2;SDS_P1;SDS_P2;PMS_P1;PMS_P2;Temp;Humidity;BMP_temperature;BMP_pressure;BME280_temperature;BME280_humidity;BME280_pressure;Samples;Min_cycle;Max_cycle;Signal;HPM_P1;HPM_P2
2024/03/17 16:55:44;;;;;;;6.25;2.03;;;;;;;;;;5112874;27;20158;-56
2024/03/17 16:58:10;;;;;;;5.30;2.17;;;;;;;;;;5126931;28;20359;-56
2024/03/17 17:00:36;;;;;;;5.40;1.90;;;;;;;;;;5131597;27;20023;-56
2024/03/17 17:03:01;;;;;;;4.30;1.83;;;;;;;;;;5132525;27;20030;-57
2024/03/17 17:05:28;;;;;;;5.95;2.10;;;;;;;;;;5133154;27;20042;-57
2024/03/17 17:07:55;;;;;;;7.13;2.25;;;;;;;;;;5133486;27;20107;-56
2024/03/17 17:10:21;;;;;;;5.50;2.05;;;;;;;;;;5117609;27;20024;-57
2024/03/17 17:12:46;;;;;;;8.05;2.33;;;;;;;;;;5112514;28;20028;-55
2024/03/17 17:15:15;;;;;;;6.22;2.10;;;;;;;;;;5112371;28;20089;-57
2024/03/17 17:17:44;;;;;;;6.53;1.88;;;;;;;;;;5112414;28;20043;-57
2024/03/17 17:20:13;;;;;;;6.38;1.80;;;;;;;;;;5124846;28;20031;-57
2024/03/17 17:22:38;;;;;;;5.60;1.80;;;;;;;;;;5132753;27;20015;-56
2024/03/17 17:25:06;;;;;;;7.13;2.45;;;;;;;;;;5127614;27;20161;-57
2024/03/17 17:27:32;;;;;;;4.93;2.10;;;;;;;;;;5112335;28;20015;-56
2024/03/17 17:29:57;;;;;;;5.97;1.92;;;;;;;;;;5122340;28;20064;-57
2024/03/17 17:32:23;;;;;;;6.40;2.30;;;;;;;;;;5132932;27;20098;-57
2024/03/17 17:34:48;;;;;;;5.28;1.73;;;;;;;;;;5132350;27;20023;-56
2024/03/17 17:37:13;;;;;;;8.32;1.98;;;;;;;;;;5132835;27;20008;-56
2024/03/17 17:39:38;;;;;;;6.07;2.45;;;;;;;;;;5124719;27;20027;-56
2024/03/17 17:42:06;;;;;;;4.53;1.77;;;;;;;;;;5111675;28;20095;-55
2024/03/17 17:44:32;;;;;;;6.22;1.75;;;;;;;;;;5111847;28;20028;-57
2024/03/17 17:46:58;;;;;;;10.60;2.40;;;;;;;;;;5111738;28;20024;-56
2024/03/17 17:49:23;;;;;;;6.00;1.70;;;;;;;;;;5116982;28;20460;-57
2024/03/17 17:51:49;;;;;;;5.10;1.80;;;;;;;;;;5132277;27;20023;-56
2024/03/17 17:54:14;;;;;;;6.60;2.00;;;;;;;;;;5116860;28;20020;-55
2024/03/17 17:56:40;;;;;;;7.97;2.25;;;;;;;;;;5111626;28;20345;-57
2024/03/17 17:59:05;;;;;;;5.85;2.10;;;;;;;;;;5113954;28;20030;-57
2024/03/17 18:01:31;;;;;;;6.88;2.15;;;;;;;;;;5131036;27;20023;-57
2024/03/17 18:03:57;;;;;;;6.10;2.22;;;;;;;;;;5131662;27;20019;-57
2024/03/17 18:06:23;;;;;;;4.63;1.63;;;;;;;;;;5122600;27;20027;-58
2024/03/17 18:08:48;;;;;;;6.20;2.00;;;;;;;;;;5118075;28;20030;-58
2024/03/17 18:11:20;;;;;;;7.22;2.10;;;;;;;;;;5097911;28;20051;-57
2024/03/17 18:13:46;;;;;;;8.27;2.33;;;;;;;;;;5097729;28;20031;-58
2024/03/17 18:16:12;;;;;;;4.63;1.95;;;;;;;;;;5097748;28;20024;-58
2024/03/17 18:18:38;;;;;;;6.03;2.03;;;;;;;;;;5097739;28;20348;-57
2024/03/17 18:21:06;;;;;;;5.70;2.30;;;;;;;;;;5116043;28;20501;-58
2024/03/17 18:23:32;;;;;;;6.45;2.50;;;;;;;;;;5117944;28;20024;-58
2024/03/17 18:25:57;;;;;;;7.35;2.25;;;;;;;;;;5117841;28;20016;-58
2024/03/17 18:28:23;;;;;;;5.72;2.35;;;;;;;;;;5117705;27;20092;-60
2024/03/17 18:30:48;;;;;;;6.07;2.53;;;;;;;;;;5117334;28;20012;-58
2024/03/17 18:33:14;;;;;;;7.40;2.78;;;;;;;;;;5117824;28;20024;-58
2024/03/17 18:35:48;;;;;;;9.70;2.22;;;;;;;;;;5116784;28;20024;-58
2024/03/17 18:38:16;;;;;;;5.97;2.40;;;;;;;;;;5101740;28;20031;-58
2024/03/17 18:40:41;;;;;;;8.00;2.63;;;;;;;;;;5097906;28;20016;-57
2024/03/17 18:43:07;;;;;;;4.85;2.33;;;;;;;;;;5097154;28;20016;-58
2024/03/17 18:45:32;;;;;;;5.68;2.60;;;;;;;;;;5103916;28;20024;-57
2024/03/17 18:47:58;;;;;;;7.68;2.80;;;;;;;;;;5104749;28;20028;-57
2024/03/17 18:50:23;;;;;;;7.60;2.55;;;;;;;;;;5096964;28;20031;-56
2024/03/17 18:52:48;;;;;;;7.43;2.45;;;;;;;;;;5096742;28;20445;-58
2024/03/17 18:55:14;;;;;;;7.22;2.83;;;;;;;;;;5096757;28;20039;-57
2024/03/17 18:57:39;;;;;;;7.68;3.45;;;;;;;;;;5105376;28;20023;-55
2024/03/17 19:00:07;;;;;;;7.97;2.70;;;;;;;;;;5116925;28;20427;-57
2024/03/17 19:02:33;;;;;;;6.00;2.72;;;;;;;;;;5115436;28;20024;-57
2024/03/17 19:04:59;;;;;;;6.18;2.63;;;;;;;;;;5116851;28;20023;-57
2024/03/17 19:07:28;;;;;;;14.10;9.60;;;;;;;;;;5110072;28;20023;-57
2024/03/17 19:09:53;;;;;;;9.32;4.80;;;;;;;;;;5096684;28;20372;-57
2024/03/17 19:12:18;;;;;;;7.18;3.60;;;;;;;;;;5096857;28;20031;-58
2024/03/17 19:14:44;;;;;;;8.70;3.80;;;;;;;;;;5112908;28;20015;-57
2024/03/17 19:17:09;;;;;;;5.90;2.95;;;;;;;;;;5115642;28;20169;-57
2024/03/17 19:19:34;;;;;;;7.38;2.60;;;;;;;;;;5116782;28;20527;-57
2024/03/17 19:22:05;;;;;;;7.57;2.85;;;;;;;;;;5116907;28;20012;-57
2024/03/17 19:24:30;;;;;;;8.27;2.42;;;;;;;;;;5117108;28;20451;-57
2024/03/17 19:26:56;;;;;;;11.05;3.22;;;;;;;;;;5117098;28;20045;-56
2024/03/17 19:29:21;;;;;;;7.82;2.80;;;;;;;;;;5116702;28;20068;-56
2024/03/17 19:31:47;;;;;;;7.20;2.78;;;;;;;;;;5115707;28;20023;-56
2024/03/17 19:34:12;;;;;;;6.22;2.70;;;;;;;;;;5116506;28;20024;-57
2024/03/17 19:36:38;;;;;;;5.70;2.30;;;;;;;;;;5116151;28;20019;-56
2024/03/17 19:39:04;;;;;;;8.20;2.72;;;;;;;;;;5116473;28;20016;-55
2024/03/17 19:41:31;;;;;;;7.40;2.97;;;;;;;;;;5116381;28;20015;-57
2024/03/17 19:43:56;;;;;;;5.90;2.30;;;;;;;;;;5116927;28;20026;-56
2024/03/17 19:46:23;;;;;;;7.60;2.65;;;;;;;;;;5116363;28;20020;-57
2024/03/17 19:48:53;;;;;;;5.97;2.95;;;;;;;;;;5116143;28;20083;-56
2024/03/17 19:51:20;;;;;;;6.30;2.58;;;;;;;;;;5116230;28;20065;-57
2024/03/17 19:53:47;;;;;;;7.93;2.97;;;;;;;;;;5115957;28;20023;-56
2024/03/17 19:56:18;;;;;;;5.88;2.40;;;;;;;;;;5116141;28;20015;-56
2024/03/17 19:58:44;;;;;;;6.07;2.50;;;;;;;;;;5116205;28;20022;-57
2024/03/17 20:01:09;;;;;;;6.82;2.70;;;;;;;;;;5115746;28;20016;-57
2024/03/17 20:03:35;;;;;;;6.28;2.60;;;;;;;;;;5115911;28;20047;-57
2024/03/17 20:06:02;;;;;;;5.25;2.50;;;;;;;;;;5116029;28;20458;-56
2024/03/17 20:08:27;;;;;;;7.28;2.45;;;;;;;;;;5115985;28;20023;-57
2024/03/17 20:10:53;;;;;;;5.35;2.20;;;;;;;;;;5116078;28;20340;-57
2024/03/17 20:13:18;;;;;;;7.55;3.00;;;;;;;;;;5115889;27;20466;-56
2024/03/17 20:15:44;;;;;;;5.75;2.42;;;;;;;;;;5115767;28;20098;-57
2024/03/17 20:18:12;;;;;;;7.40;2.28;;;;;;;;;;5115758;28;20026;-56
2024/03/17 20:20:37;;;;;;;7.38;2.55;;;;;;;;;;5116008;28;20020;-57
2024/03/17 20:23:02;;;;;;;6.38;2.40;;;;;;;;;;5115694;27;20007;-55
2024/03/17 20:25:27;;;;;;;7.40;2.80;;;;;;;;;;5115596;28;20024;-56
2024/03/17 20:27:53;;;;;;;7.45;2.78;;;;;;;;;;5115678;28;20027;-56
2024/03/17 20:30:23;;;;;;;11.05;2.50;;;;;;;;;;5115179;28;20089;-57
2024/03/17 20:32:50;;;;;;;7.22;2.75;;;;;;;;;;5115561;28;20024;-57
2024/03/17 20:35:17;;;;;;;7.13;3.10;;;;;;;;;;5115399;28;20467;-56
2024/03/17 20:37:42;;;;;;;6.38;3.08;;;;;;;;;;5115999;28;20016;-57
2024/03/17 20:40:09;;;;;;;7.47;2.70;;;;;;;;;;5115449;28;20019;-57
2024/03/17 20:42:35;;;;;;;11.80;3.47;;;;;;;;;;5115690;28;20047;-56
2024/03/17 20:45:01;;;;;;;6.15;3.15;;;;;;;;;;5115644;28;20027;-57
2024/03/17 20:47:26;;;;;;;7.45;3.15;;;;;;;;;;5115303;28;20030;-57
2024/03/17 20:49:51;;;;;;;9.35;3.13;;;;;;;;;;5115313;28;20425;-57
2024/03/17 20:52:18;;;;;;;7.55;3.08;;;;;;;;;;5115463;28;20028;-55
2024/03/17 20:54:43;;;;;;;7.47;2.90;;;;;;;;;;5114995;28;20031;-56
2024/03/17 20:57:09;;;;;;;7.53;3.00;;;;;;;;;;5115078;28;20094;-56
2024/03/17 20:59:34;;;;;;;11.15;4.43;;;;;;;;;;5115376;28;20011;-56
2024/03/17 21:02:00;;;;;;;7.15;3.30;;;;;;;;;;5114015;28;20015;-55
2024/03/17 21:04:26;;;;;;;9.38;3.30;;;;;;;;;;5115396;28;20016;-55
2024/03/17 21:06:52;;;;;;;9.65;3.58;;;;;;;;;;5115188;28;20020;-56
2024/03/17 21:09:19;;;;;;;7.60;3.58;;;;;;;;;;5115136;28;20093;-56
2024/03/17 21:11:44;;;;;;;6.90;3.20;;;;;;;;;;5115215;28;20023;-55
2024/03/17 21:14:09;;;;;;;6.68;3.50;;;;;;;;;;5115015;28;20046;-55
2024/03/17 21:16:35;;;;;;;7.95;3.75;;;;;;;;;;5115067;28;20379;-55
2024/03/17 21:19:00;;;;;;;7.45;3.10;;;;;;;;;;5114103;28;20012;-56
2024/03/17 21:21:25;;;;;;;11.93;3.78;;;;;;;;;;5114997;28;20016;-52
2024/03/17 21:23:51;;;;;;;6.53;3.45;;;;;;;;;;5115022;28;20100;-55
2024/03/17 21:26:17;;;;;;;10.32;4.13;;;;;;;;;;5115186;28;20107;-55
2024/03/17 21:28:43;;;;;;;7.95;3.72;;;;;;;;;;5115017;28;20024;-55
2024/03/17 21:31:09;;;;;;;7.75;3.90;;;;;;;;;;5114967;28;20030;-55
2024/03/17 21:33:34;;;;;;;5.72;3.55;;;;;;;;;;5114874;28;20344;-55
2024/03/17 21:36:00;;;;;;;6.50;3.75;;;;;;;;;;5115171;28;20072;-55
2024/03/17 21:38:26;;;;;;;11.43;4.18;;;;;;;;;;5114746;28;20024;-54
2024/03/17 21:40:51;;;;;;;10.15;4.10;;;;;;;;;;5115861;28;20020;-53
2024/03/17 21:43:16;;;;;;;6.70;3.85;;;;;;;;;;5118725;28;20459;-55
2024/03/17 21:45:42;;;;;;;9.38;4.47;;;;;;;;;;5118898;28;20031;-53
2024/03/17 21:48:07;;;;;;;7.22;4.22;;;;;;;;;;5118675;28;20071;-52
2024/03/17 21:50:33;;;;;;;9.35;4.53;;;;;;;;;;5118763;28;20024;-55
2024/03/17 21:52:58;;;;;;;7.20;4.47;;;;;;;;;;5118529;28;20403;-51
2024/03/17 21:55:23;;;;;;;8.55;4.88;;;;;;;;;;5118336;28;20034;-55
2024/03/17 21:57:49;;;;;;;8.68;4.78;;;;;;;;;;5117517;28;20099;-55
2024/03/17 22:00:15;;;;;;;8.95;4.40;;;;;;;;;;5118396;27;20367;-55
2024/03/17 22:02:41;;;;;;;9.35;4.75;;;;;;;;;;5116791;28;20081;-52
2024/03/17 22:05:06;;;;;;;7.40;4.30;;;;;;;;;;5117367;28;20027;-54
2024/03/17 22:07:35;;;;;;;10.30;4.53;;;;;;;;;;5118341;28;20352;-53
2024/03/17 22:10:00;;;;;;;10.00;4.93;;;;;;;;;;5118358;28;20051;-53
2024/03/17 22:12:25;;;;;;;8.65;4.40;;;;;;;;;;5118492;28;20066;-54
2024/03/17 22:14:50;;;;;;;9.07;4.63;;;;;;;;;;5118392;28;20016;-55
2024/03/17 22:17:15;;;;;;;8.35;4.80;;;;;;;;;;5118137;28;20026;-54
2024/03/17 22:19:41;;;;;;;9.35;4.60;;;;;;;;;;5118120;28;20020;-54
2024/03/17 22:22:06;;;;;;;8.32;4.55;;;;;;;;;;5118197;28;20027;-53
2024/03/17 22:24:37;;;;;;;6.78;4.70;;;;;;;;;;5118421;28;20020;-51
2024/03/17 22:27:03;;;;;;;;;;;;;;;;;;5118198;28;20026;-55
2024/03/17 22:29:28;;;;;;;7.80;4.30;;;;;;;;;;5118136;28;20010;-53
2024/03/17 22:31:54;;;;;;;8.50;4.63;;;;;;;;;;5118082;27;20436;-55
2024/03/17 22:34:19;;;;;;;6.68;4.22;;;;;;;;;;5117627;28;20019;-54
2024/03/17 22:36:44;;;;;;;8.50;4.43;;;;;;;;;;5117958;28;20019;-55
2024/03/17 22:39:13;;;;;;;8.40;4.50;;;;;;;;;;5117665;28;20073;-52
2024/03/17 22:41:38;;;;;;;6.60;4.47;;;;;;;;;;5117672;28;20019;-55
2024/03/17 22:44:03;;;;;;;10.55;5.15;;;;;;;;;;5118125;28;20035;-55
2024/03/17 22:46:29;;;;;;;8.90;5.10;;;;;;;;;;5117498;28;20072;-52
2024/03/17 22:48:54;;;;;;;8.18;5.15;;;;;;;;;;5117377;28;20360;-54
2024/03/17 22:51:19;;;;;;;9.95;4.63;;;;;;;;;;5117337;28;20015;-52
2024/03/17 22:53:44;;;;;;;9.30;5.50;;;;;;;;;;5117158;28;20361;-55
2024/03/17 22:56:10;;;;;;;11.68;6.20;;;;;;;;;;5117703;27;20043;-54
2024/03/17 22:58:43;;;;;;;10.02;5.22;;;;;;;;;;5117322;28;20475;-52
2024/03/17 23:01:15;;;;;;;9.02;5.43;;;;;;;;;;5116950;28;20081;-55
2024/03/17 23:03:40;;;;;;;10.95;5.32;;;;;;;;;;5116675;28;20019;-53
2024/03/17 23:06:06;;;;;;;8.02;5.50;;;;;;;;;;5116442;28;20034;-53
2024/03/17 23:08:32;;;;;;;8.85;5.40;;;;;;;;;;5116431;28;20099;-51
2024/03/17 23:11:01;;;;;;;8.93;6.03;;;;;;;;;;5116819;28;20015;-55
2024/03/17 23:13:26;;;;;;;12.38;6.10;;;;;;;;;;5115412;28;20019;-54
2024/03/17 23:15:56;;;;;;;10.88;6.30;;;;;;;;;;5116372;28;20018;-53
2024/03/17 23:18:21;;;;;;;13.13;6.35;;;;;;;;;;5116794;28;20490;-53
2024/03/17 23:20:46;;;;;;;10.80;6.80;;;;;;;;;;5116376;28;20012;-56
2024/03/17 23:23:12;;;;;;;11.68;6.93;;;;;;;;;;5116335;28;20012;-54
2024/03/17 23:25:38;;;;;;;11.50;7.32;;;;;;;;;;5115729;28;20031;-51
2024/03/17 23:28:04;;;;;;;12.65;6.60;;;;;;;;;;5116209;28;20028;-51
2024/03/17 23:30:29;;;;;;;10.48;7.38;;;;;;;;;;5116090;28;20440;-53
2024/03/17 23:32:54;;;;;;;10.68;7.57;;;;;;;;;;5116076;28;20023;-55
2024/03/17 23:35:19;;;;;;;12.60;7.28;;;;;;;;;;5115969;28;20019;-56
2024/03/17 23:37:44;;;;;;;13.30;7.38;;;;;;;;;;5116029;28;20024;-54
2024/03/17 23:40:10;;;;;;;10.88;7.20;;;;;;;;;;5116038;28;20589;-51
2024/03/17 23:42:36;;;;;;;12.48;7.55;;;;;;;;;;5115813;28;20352;-55
2024/03/17 23:45:02;;;;;;;10.95;6.97;;;;;;;;;;5115932;28;20095;-56
2024/03/17 23:47:28;;;;;;;11.73;7.28;;;;;;;;;;5115653;28;20451;-56
2024/03/17 23:49:53;;;;;;;11.52;7.68;;;;;;;;;;5115823;28;20019;-56
2024/03/17 23:52:18;;;;;;;12.63;7.22;;;;;;;;;;5115720;28;20038;-54
2024/03/17 23:54:45;;;;;;;13.45;7.88;;;;;;;;;;5115525;28;20034;-54
2024/03/17 23:57:10;;;;;;;11.02;7.65;;;;;;;;;;5115441;28;20103;-53
2024/03/17 23:59:35;;;;;;;12.02;8.65;;;;;;;;;;5115591;28;20459;-52
